createdAt,value
2022-10-05T00:00:46.644Z,69.78
2022-10-05T00:03:14.541Z,69.86
2022-10-05T00:05:42.506Z,70.08
2022-10-05T00:08:32.562Z,70.22
2022-10-05T00:11:01.117Z,70.15
2022-10-05T00:13:38.811Z,70.15
2022-10-05T00:16:22.646Z,70.11
2022-10-05T00:19:00.158Z,70.49
2022-10-05T00:21:35.319Z,70.09
2022-10-05T00:24:14.098Z,70.15
2022-10-05T00:26:46.935Z,70.18
2022-10-05T00:29:25.971Z,70.22
2022-10-05T00:32:04.436Z,70.47
2022-10-05T00:34:55.618Z,70.74
2022-10-05T00:37:24.590Z,71.29
2022-10-05T00:39:52.601Z,71.28
2022-10-05T00:43:04.073Z,71.23
2022-10-05T00:45:48.698Z,71.02
2022-10-05T00:48:26.720Z,70.96
2022-10-05T00:51:12.449Z,70.91
2022-10-05T00:54:18.545Z,71.00
2022-10-05T00:56:57.281Z,70.88
2022-10-05T00:59:27.782Z,71.42
2022-10-05T01:02:22.927Z,71.36
2022-10-05T01:05:11.663Z,71.23
2022-10-05T01:07:48.706Z,71.08
2022-10-05T01:10:48.294Z,71.50
2022-10-05T01:13:21.571Z,71.55
2022-10-05T01:16:11.029Z,71.66
2022-10-05T01:18:47.998Z,71.40
2022-10-05T01:21:21.020Z,71.68
2022-10-05T01:24:40.662Z,71.95
2022-10-05T01:27:11.428Z,71.91
2022-10-05T01:30:09.317Z,71.83
2022-10-05T01:32:42.303Z,71.84
2022-10-05T01:35:25.515Z,71.55
2022-10-05T01:37:56.145Z,71.34
2022-10-05T01:40:42.342Z,71.52
2022-10-05T01:43:30.410Z,71.59
2022-10-05T01:46:31.756Z,71.80
2022-10-05T01:49:16.721Z,72.05
2022-10-05T01:52:25.297Z,72.36
2022-10-05T01:55:20.513Z,72.06
2022-10-05T01:58:07.340Z,72.27
2022-10-05T02:01:01.998Z,72.26
2022-10-05T02:03:50.314Z,72.62
2022-10-05T02:06:25.400Z,72.57
2022-10-05T02:09:18.900Z,72.30
2022-10-05T02:11:58.168Z,72.32
2022-10-05T02:14:33.479Z,72.03
2022-10-05T02:17:08.968Z,72.51
2022-10-05T02:19:40.405Z,72.99
2022-10-05T02:22:22.619Z,73.99
2022-10-05T02:25:04.176Z,73.06
2022-10-05T02:27:35.660Z,73.09
2022-10-05T02:30:07.051Z,73.38
2022-10-05T02:32:47.917Z,73.48
2022-10-05T02:35:19.815Z,73.16
2022-10-05T02:38:24.238Z,73.07
2022-10-05T02:41:53.929Z,72.89
2022-10-05T02:44:53.158Z,72.82
2022-10-05T02:48:25.901Z,72.91
2022-10-05T02:51:03.620Z,72.87
2022-10-05T02:54:01.104Z,72.81
2022-10-05T02:56:42.192Z,72.62
2022-10-05T02:59:18.817Z,72.53
2022-10-05T03:02:00.169Z,72.85
2022-10-05T03:04:55.166Z,73.26
2022-10-05T03:07:58.673Z,73.34
2022-10-05T03:10:37.880Z,73.01
2022-10-05T03:13:14.348Z,72.86
2022-10-05T03:16:07.194Z,73.00
2022-10-05T03:18:41.541Z,72.94
2022-10-05T03:21:27.143Z,72.91
2022-10-05T03:24:24.505Z,72.83
2022-10-05T03:27:01.759Z,72.70
2022-10-05T03:29:45.352Z,72.86
2022-10-05T03:32:23.765Z,72.87
2022-10-05T03:35:01.180Z,72.99
2022-10-05T03:37:32.691Z,73.15
2022-10-05T03:40:56.333Z,73.29
2022-10-05T03:43:55.888Z,73.31
2022-10-05T03:46:53.356Z,74.02
2022-10-05T03:49:47.352Z,74.31
2022-10-05T03:52:23.414Z,73.93
2022-10-05T03:54:58.111Z,73.82
2022-10-05T03:57:30.685Z,73.90
2022-10-05T04:00:06.810Z,74.37
2022-10-05T04:03:31.022Z,74.65
2022-10-05T04:06:07.640Z,74.32
2022-10-05T04:08:48.343Z,74.03
2022-10-05T04:11:47.727Z,73.50
2022-10-05T04:14:30.177Z,73.20
2022-10-05T04:17:37.033Z,72.50
2022-10-05T04:20:28.642Z,72.89
2022-10-05T04:23:24.449Z,72.49
2022-10-05T04:26:02.862Z,72.66
2022-10-05T04:28:57.888Z,72.91
2022-10-05T04:32:02.228Z,73.29
2022-10-05T04:34:49.155Z,73.55
2022-10-05T04:37:28.413Z,73.72
2022-10-05T04:40:20.581Z,73.85
2022-10-05T04:43:07.104Z,73.76
2022-10-05T04:46:09.361Z,73.80
2022-10-05T04:49:04.271Z,73.75
2022-10-05T04:51:55.292Z,73.58
2022-10-05T04:54:51.192Z,73.68
2022-10-05T04:57:42.113Z,73.04
2022-10-05T05:00:32.157Z,73.66
2022-10-05T05:03:34.201Z,73.69
2022-10-05T05:06:33.316Z,73.51
2022-10-05T05:09:19.079Z,73.02
2022-10-05T05:12:04.223Z,73.40
2022-10-05T05:14:39.832Z,73.25
2022-10-05T05:17:38.700Z,73.20
2022-10-05T05:20:12.320Z,73.27
2022-10-05T05:22:52.124Z,73.28
2022-10-05T05:26:04.839Z,73.01
2022-10-05T05:28:44.794Z,73.23
2022-10-05T05:31:29.770Z,73.24
2022-10-05T05:34:05.645Z,73.03
2022-10-05T05:36:51.847Z,72.96
2022-10-05T05:39:54.439Z,72.77
2022-10-05T05:42:52.023Z,72.85
2022-10-05T05:45:52.454Z,72.81
2022-10-05T05:48:42.885Z,72.66
2022-10-05T05:51:44.005Z,72.98
2022-10-05T05:54:34.004Z,72.94
2022-10-05T05:57:28.494Z,72.55
2022-10-05T06:00:11.525Z,72.26
2022-10-05T06:03:01.559Z,72.35
2022-10-05T06:05:48.710Z,72.36
2022-10-05T06:08:46.769Z,72.69
2022-10-05T06:11:55.664Z,72.70
2022-10-05T06:14:41.155Z,72.67
2022-10-05T06:17:22.344Z,72.10
2022-10-05T06:19:54.755Z,71.89
2022-10-05T06:22:51.016Z,71.70
2022-10-05T06:25:45.593Z,72.13
2022-10-05T06:28:20.103Z,71.69
2022-10-05T06:31:35.953Z,71.27
2022-10-05T06:34:15.241Z,70.55
2022-10-05T06:36:51.621Z,70.27
2022-10-05T06:39:20.105Z,69.91
2022-10-05T06:41:54.608Z,69.94
2022-10-05T06:45:16.850Z,69.76
2022-10-05T06:48:42.409Z,69.35
2022-10-05T06:51:51.668Z,69.02
2022-10-05T06:54:44.096Z,69.06
2022-10-05T06:57:20.744Z,68.81
2022-10-05T07:00:16.754Z,68.87
2022-10-05T07:03:00.494Z,68.73
2022-10-05T07:05:57.646Z,68.92
2022-10-05T07:08:25.520Z,68.96
2022-10-05T07:11:03.982Z,68.74
2022-10-05T07:14:01.798Z,68.37
2022-10-05T07:16:53.546Z,68.22
2022-10-05T07:19:26.725Z,67.91
2022-10-05T07:22:21.186Z,68.00
2022-10-05T07:25:04.564Z,67.97
2022-10-05T07:27:39.655Z,68.13
2022-10-05T07:30:14.979Z,67.37
2022-10-05T07:32:56.529Z,67.77
2022-10-05T07:36:15.029Z,68.78
2022-10-05T07:38:51.930Z,68.91
2022-10-05T07:41:38.185Z,67.17
2022-10-05T07:44:31.344Z,66.12
2022-10-05T07:47:14.174Z,65.51
2022-10-05T07:50:03.796Z,66.66
2022-10-05T07:52:57.625Z,65.03
2022-10-05T07:56:10.338Z,64.23
2022-10-05T07:58:48.149Z,64.40
2022-10-05T08:01:23.760Z,63.54
2022-10-05T08:04:08.533Z,63.81
2022-10-05T08:06:54.632Z,64.32
2022-10-05T08:09:40.603Z,62.97
2022-10-05T08:12:41.884Z,63.78
2022-10-05T08:15:17.233Z,62.31
2022-10-05T08:18:06.281Z,62.40
2022-10-05T08:20:50.615Z,62.73
2022-10-05T08:23:38.959Z,62.30
2022-10-05T08:26:23.125Z,61.96
2022-10-05T08:29:30.432Z,60.97
2022-10-05T08:33:00.097Z,61.30
2022-10-05T08:35:36.567Z,61.19
2022-10-05T08:38:16.654Z,61.14
2022-10-05T08:41:03.722Z,61.76
2022-10-05T08:44:03.976Z,60.94
2022-10-05T08:46:53.489Z,60.60
2022-10-05T08:49:57.087Z,60.11
2022-10-05T08:52:30.493Z,60.11
2022-10-05T08:55:22.622Z,60.03
2022-10-05T08:57:50.020Z,59.87
2022-10-05T09:00:25.071Z,59.71
2022-10-05T09:03:23.943Z,59.96
2022-10-05T09:06:20.627Z,59.65
2022-10-05T09:09:19.045Z,59.21
2022-10-05T09:12:08.461Z,59.62
2022-10-05T09:15:25.530Z,59.89
2022-10-05T09:18:23.230Z,60.36
2022-10-05T09:20:59.372Z,60.28
2022-10-05T09:23:40.688Z,60.58
2022-10-05T09:26:29.659Z,60.88
2022-10-05T09:29:39.395Z,61.34
2022-10-05T09:32:25.957Z,61.72
2022-10-05T09:35:15.647Z,62.87
2022-10-05T09:38:11.121Z,63.07
2022-10-05T09:40:47.985Z,63.18
2022-10-05T09:43:47.318Z,62.69
2022-10-05T09:46:36.349Z,61.97
2022-10-05T09:49:29.074Z,62.93
2022-10-05T09:52:44.804Z,62.82
2022-10-05T09:55:34.576Z,63.63
2022-10-05T09:58:34.050Z,63.71
2022-10-05T10:01:40.679Z,63.79
2022-10-05T10:04:47.210Z,63.49
2022-10-05T10:07:58.882Z,63.42
2022-10-05T10:10:44.261Z,62.21
2022-10-05T10:13:36.807Z,63.10
2022-10-05T10:16:35.466Z,62.95
2022-10-05T10:19:24.876Z,63.17
2022-10-05T10:22:20.664Z,62.63
2022-10-05T10:25:04.048Z,64.01
2022-10-05T10:28:06.038Z,63.71
2022-10-05T10:30:52.212Z,64.79
2022-10-05T10:33:40.712Z,64.79
2022-10-05T10:36:27.268Z,64.66
2022-10-05T10:39:00.559Z,65.50
2022-10-05T10:41:58.632Z,65.08
2022-10-05T10:44:52.030Z,65.12
2022-10-05T10:47:39.151Z,64.65
2022-10-05T10:50:33.718Z,65.25
2022-10-05T10:53:05.815Z,64.85
2022-10-05T10:55:49.477Z,64.63
2022-10-05T10:58:54.779Z,65.14
2022-10-05T11:01:35.180Z,65.11
2022-10-05T11:04:24.882Z,64.19
2022-10-05T11:07:29.439Z,63.92
2022-10-05T11:10:16.709Z,63.47
2022-10-05T11:13:08.643Z,63.35
2022-10-05T11:16:18.753Z,63.04
2022-10-05T11:19:20.722Z,62.62
2022-10-05T11:21:56.319Z,62.86
2022-10-05T11:24:55.032Z,62.90
2022-10-05T11:27:47.613Z,63.36
2022-10-05T11:30:15.618Z,62.93
2022-10-05T11:33:11.762Z,62.71
2022-10-05T11:35:51.205Z,62.73
2022-10-05T11:38:58.421Z,61.93
2022-10-05T11:41:54.036Z,62.60
2022-10-05T11:44:52.131Z,63.24
2022-10-05T11:47:31.977Z,62.98
2022-10-05T11:50:43.973Z,63.13
2022-10-05T11:53:32.663Z,62.92
2022-10-05T11:56:00.411Z,62.94
2022-10-05T11:59:17.361Z,62.66
2022-10-05T12:02:06.921Z,62.50
2022-10-05T12:04:59.886Z,62.55
2022-10-05T12:07:39.621Z,62.11
2022-10-05T12:10:44.514Z,62.08
2022-10-05T12:13:36.104Z,61.85
2022-10-05T12:16:33.263Z,62.47
2022-10-05T12:19:14.568Z,62.74
2022-10-05T12:21:51.819Z,63.00
2022-10-05T12:24:38.738Z,63.40
2022-10-05T12:27:34.469Z,63.02
2022-10-05T12:30:13.913Z,62.55
2022-10-05T12:33:04.612Z,63.18
2022-10-05T12:35:58.072Z,63.45
2022-10-05T12:38:53.193Z,63.23
2022-10-05T12:41:51.363Z,63.03
2022-10-05T12:44:37.879Z,63.49
2022-10-05T12:47:30.308Z,63.36
2022-10-05T12:50:18.568Z,63.36
2022-10-05T12:53:11.519Z,63.39
2022-10-05T12:55:53.937Z,63.74
2022-10-05T12:58:36.401Z,63.42
2022-10-05T13:01:09.808Z,63.67
2022-10-05T13:03:52.473Z,63.99
2022-10-05T13:06:51.653Z,64.17
2022-10-05T13:09:37.096Z,64.61
2022-10-05T13:12:36.513Z,64.35
2022-10-05T13:15:23.825Z,64.89
2022-10-05T13:18:14.473Z,64.96
2022-10-05T13:21:16.784Z,65.12
2022-10-05T13:24:07.835Z,65.16
2022-10-05T13:26:50.810Z,65.29
2022-10-05T13:29:47.491Z,65.40
2022-10-05T13:32:24.837Z,65.27
2022-10-05T13:35:12.628Z,64.55
2022-10-05T13:38:17.246Z,64.53
2022-10-05T13:41:27.126Z,64.73
2022-10-05T13:44:34.057Z,64.67
2022-10-05T13:47:30.303Z,65.22
2022-10-05T13:50:17.491Z,65.30
2022-10-05T13:52:56.650Z,64.97
2022-10-05T13:55:33.012Z,65.05
2022-10-05T13:58:44.490Z,65.67
2022-10-05T14:01:42.860Z,66.02
2022-10-05T14:04:19.974Z,65.92
2022-10-05T14:06:56.811Z,66.00
2022-10-05T14:09:37.440Z,65.91
2022-10-05T14:12:05.263Z,66.13
2022-10-05T14:14:51.647Z,65.90
2022-10-05T14:17:39.890Z,66.12
2022-10-05T14:20:36.728Z,66.72
2022-10-05T14:23:18.563Z,67.01
2022-10-05T14:25:55.332Z,66.91
2022-10-05T14:28:26.624Z,67.22
2022-10-05T14:31:02.979Z,67.09
2022-10-05T14:33:36.923Z,66.68
2022-10-05T14:36:12.888Z,67.43
2022-10-05T14:39:01.255Z,67.39
2022-10-05T14:41:30.318Z,67.62
2022-10-05T14:44:07.080Z,67.52
2022-10-05T14:47:06.588Z,67.61
2022-10-05T14:49:50.822Z,67.73
2022-10-05T14:52:32.917Z,67.71
2022-10-05T14:55:37.881Z,67.95
2022-10-05T14:58:32.645Z,68.19
2022-10-05T15:01:11.600Z,68.32
2022-10-05T15:03:58.076Z,68.21
2022-10-05T15:06:58.420Z,68.27
2022-10-05T15:09:34.449Z,68.57
2022-10-05T15:12:03.707Z,68.43
2022-10-05T15:14:34.543Z,68.36
2022-10-05T15:17:07.247Z,67.85
2022-10-05T15:19:45.175Z,68.46
2022-10-05T15:23:17.441Z,67.69
2022-10-05T15:26:27.177Z,67.63
2022-10-05T15:29:05.278Z,67.41
2022-10-05T15:31:42.255Z,68.01
2022-10-05T15:34:33.186Z,67.85
2022-10-05T15:37:12.696Z,68.69
2022-10-05T15:40:00.664Z,68.60
2022-10-05T15:42:44.282Z,68.33
2022-10-05T15:45:19.506Z,68.69
2022-10-05T15:47:52.603Z,69.25
2022-10-05T15:50:28.501Z,68.95
2022-10-05T15:53:16.437Z,69.16
2022-10-05T15:56:00.817Z,69.28
2022-10-05T15:58:43.391Z,69.24
2022-10-05T16:01:23.446Z,68.98
2022-10-05T16:04:00.563Z,68.85
2022-10-05T16:07:01.653Z,69.01
2022-10-05T16:09:36.681Z,69.58
2022-10-05T16:12:23.489Z,69.42
2022-10-05T16:15:07.045Z,69.03
2022-10-05T16:17:59.680Z,68.97
2022-10-05T16:20:39.458Z,68.93
2022-10-05T16:23:24.373Z,69.19
2022-10-05T16:26:33.129Z,69.23
2022-10-05T16:29:11.986Z,69.00
2022-10-05T16:31:55.259Z,68.48
2022-10-05T16:34:45.351Z,68.50
2022-10-05T16:37:38.078Z,69.23
2022-10-05T16:40:27.182Z,69.49
2022-10-05T16:43:19.401Z,69.51
2022-10-05T16:46:14.170Z,67.99
2022-10-05T16:49:16.894Z,68.00
2022-10-05T16:52:00.136Z,68.24
2022-10-05T16:55:06.505Z,69.03
2022-10-05T16:57:42.199Z,68.74
2022-10-05T17:00:38.187Z,68.89
2022-10-05T17:03:34.742Z,69.17
2022-10-05T17:06:28.063Z,69.49
2022-10-05T17:09:30.801Z,69.36
2022-10-05T17:12:22.875Z,68.67
2022-10-05T17:15:30.767Z,69.27
2022-10-05T17:18:19.067Z,69.63
2022-10-05T17:20:58.606Z,69.42
2022-10-05T17:23:44.637Z,69.13
2022-10-05T17:26:30.842Z,69.50
2022-10-05T17:29:02.140Z,69.43
2022-10-05T17:31:31.961Z,69.65
2022-10-05T17:34:17.383Z,69.43
2022-10-05T17:36:50.162Z,69.42
2022-10-05T17:39:54.809Z,69.85
2022-10-05T17:42:37.069Z,69.47
2022-10-05T17:45:12.262Z,69.54
2022-10-05T17:47:59.628Z,69.65
2022-10-05T17:51:02.605Z,69.16
2022-10-05T17:53:56.346Z,69.11
2022-10-05T17:56:24.404Z,68.98
2022-10-05T17:58:54.834Z,69.19
2022-10-05T18:01:41.778Z,68.88
2022-10-05T18:04:12.301Z,68.89
2022-10-05T18:07:00.663Z,69.31
2022-10-05T18:09:28.520Z,68.74
2022-10-05T18:12:39.263Z,68.80
2022-10-05T18:15:22.820Z,68.79
2022-10-05T18:18:32.601Z,68.68
2022-10-05T18:21:20.906Z,69.17
2022-10-05T18:24:01.983Z,69.20
2022-10-05T18:26:53.049Z,68.84
2022-10-05T18:29:57.304Z,69.23
2022-10-05T18:32:45.777Z,69.03
2022-10-05T18:35:23.586Z,69.06
2022-10-05T18:38:02.448Z,68.69
2022-10-05T18:41:09.482Z,69.12
2022-10-05T18:43:57.441Z,68.80
2022-10-05T18:46:46.661Z,68.74
2022-10-05T18:49:32.394Z,68.81
2022-10-05T18:52:09.677Z,69.32
2022-10-05T18:54:57.224Z,69.77
2022-10-05T18:57:24.925Z,69.66
2022-10-05T19:00:04.947Z,69.55
2022-10-05T19:02:44.212Z,69.43
2022-10-05T19:05:49.715Z,69.57
2022-10-05T19:08:27.358Z,69.40
2022-10-05T19:11:26.916Z,69.34
2022-10-05T19:14:16.371Z,69.51
2022-10-05T19:17:19.182Z,69.25
2022-10-05T19:20:25.197Z,69.38
2022-10-05T19:23:14.980Z,69.06
2022-10-05T19:25:55.749Z,68.93
2022-10-05T19:28:30.796Z,68.91
2022-10-05T19:31:32.605Z,67.75
2022-10-05T19:34:49.203Z,67.46
2022-10-05T19:37:57.855Z,67.80
2022-10-05T19:40:52.718Z,68.11
2022-10-05T19:44:01.755Z,68.38
2022-10-05T19:47:05.537Z,68.44
2022-10-05T19:49:40.065Z,68.26
2022-10-05T19:52:38.541Z,67.75
2022-10-05T19:55:24.953Z,67.69
2022-10-05T19:58:45.241Z,67.82
2022-10-05T20:01:37.120Z,67.88
2022-10-05T20:04:11.589Z,68.42
2022-10-05T20:06:48.724Z,68.36
2022-10-05T20:09:21.514Z,68.25
2022-10-05T20:11:57.617Z,68.20
2022-10-05T20:14:59.205Z,67.75
2022-10-05T20:17:46.229Z,68.03
2022-10-05T20:20:41.062Z,68.39
2022-10-05T20:23:28.864Z,68.28
2022-10-05T20:26:24.390Z,67.90
2022-10-05T20:28:52.277Z,68.07
2022-10-05T20:31:20.554Z,68.06
2022-10-05T20:33:48.918Z,68.12
2022-10-05T20:36:16.666Z,68.31
2022-10-05T20:38:44.830Z,68.68
2022-10-05T20:41:18.835Z,68.60
2022-10-05T20:43:48.089Z,68.75
2022-10-05T20:46:18.537Z,68.55
2022-10-05T20:48:52.314Z,68.62
2022-10-05T20:51:21.487Z,68.90
2022-10-05T20:53:52.791Z,68.88
2022-10-05T20:56:24.403Z,68.76
2022-10-05T20:58:53.773Z,68.90
2022-10-05T21:01:28.679Z,68.96
2022-10-05T21:03:59.167Z,68.73
2022-10-05T21:06:29.969Z,68.91
2022-10-05T21:08:57.758Z,69.19
2022-10-05T21:11:29.319Z,68.81
2022-10-05T21:14:04.795Z,69.00
2022-10-05T21:16:38.572Z,69.00
2022-10-05T21:19:10.118Z,69.02
2022-10-05T21:21:37.790Z,69.05
2022-10-05T21:24:06.004Z,69.11
2022-10-05T21:26:34.388Z,69.30
2022-10-05T21:29:02.802Z,69.01
2022-10-05T21:31:30.884Z,68.89
2022-10-05T21:33:58.547Z,69.19
2022-10-05T21:36:26.481Z,69.10
2022-10-05T21:39:00.892Z,69.03
2022-10-05T21:41:28.709Z,69.12
2022-10-05T21:43:56.349Z,69.28
2022-10-05T21:46:29.582Z,69.20
2022-10-05T21:48:57.239Z,69.23
2022-10-05T21:51:26.234Z,69.28
2022-10-05T21:54:13.406Z,69.25
2022-10-05T21:56:44.648Z,69.23
2022-10-05T21:59:15.502Z,69.14
2022-10-05T22:01:43.058Z,69.18
2022-10-05T22:04:10.755Z,69.12
2022-10-05T22:06:38.878Z,69.21
2022-10-05T22:09:07.180Z,69.18
2022-10-05T22:11:35.021Z,69.29
2022-10-05T22:14:05.477Z,69.03
2022-10-05T22:16:36.981Z,69.00
2022-10-05T22:19:07.119Z,68.94
2022-10-05T22:21:41.997Z,68.89
2022-10-05T22:24:12.077Z,69.02
2022-10-05T22:26:48.021Z,69.30
2022-10-05T22:29:22.201Z,69.18
2022-10-05T22:31:50.258Z,68.95
2022-10-05T22:34:18.771Z,69.22
2022-10-05T22:36:47.830Z,69.06
2022-10-05T22:39:17.053Z,68.97
2022-10-05T22:41:45.048Z,68.84
2022-10-05T22:44:13.092Z,68.99
2022-10-05T22:46:40.799Z,68.64
2022-10-05T22:49:08.208Z,68.94
2022-10-05T22:51:35.873Z,68.93
2022-10-05T22:54:03.725Z,68.74
2022-10-05T22:56:31.135Z,68.80
2022-10-05T22:58:58.954Z,68.89
2022-10-05T23:01:27.645Z,68.96
2022-10-05T23:03:57.511Z,69.02
2022-10-05T23:06:28.547Z,69.06
2022-10-05T23:08:56.719Z,68.92
2022-10-05T23:11:30.622Z,69.18
2022-10-05T23:13:58.960Z,69.08
2022-10-05T23:16:28.756Z,69.07
2022-10-05T23:18:56.997Z,69.47
2022-10-05T23:21:28.024Z,69.15
2022-10-05T23:23:55.857Z,69.23
2022-10-05T23:26:25.482Z,69.02
2022-10-05T23:28:53.910Z,69.21
2022-10-05T23:31:24.304Z,69.55
2022-10-05T23:33:53.392Z,69.61
2022-10-05T23:36:27.204Z,69.59
2022-10-05T23:38:54.903Z,69.42
2022-10-05T23:41:22.937Z,69.96
2022-10-05T23:43:50.498Z,69.71
2022-10-05T23:46:19.014Z,69.71
2022-10-05T23:48:46.545Z,70.17
2022-10-05T23:51:15.856Z,70.04
2022-10-05T23:53:43.287Z,70.24
2022-10-05T23:56:14.854Z,70.29
2022-10-05T23:58:42.326Z,70.55
